Time;durP1;ratioP1;P1;durP2;ratioP2;P2;SDS_P1;SDS_P2;PMS_P1;PMS_P2;Temp;Humidity;BMP_temperature;BMP_pressure;BME280_temperature;BME280_humidity;BME280_pressure;Samples;Min_cycle;Max_cycle;Signal;HPM_P1;HPM_P2
2023/09/15 00:01:09;;;;;;;2.90;2.00;;;16.60;99.90;;;;;;4977462;28;20222;-71
2023/09/15 00:03:35;;;;;;;5.20;1.67;;;16.50;99.90;;;;;;5009133;28;20593;-71
2023/09/15 00:06:01;;;;;;;2.60;1.77;;;16.50;99.90;;;;;;4980338;28;20491;-71
2023/09/15 00:08:28;;;;;;;4.27;2.50;;;16.50;99.90;;;;;;4978435;28;21126;-71
2023/09/15 00:10:54;;;;;;;3.87;1.80;;;16.40;99.90;;;;;;4995806;28;20460;-72
2023/09/15 00:13:19;;;;;;;1.90;1.70;;;16.40;99.90;;;;;;4980021;28;20456;-72
2023/09/15 00:15:50;;;;;;;1.77;1.63;;;16.40;99.90;;;;;;5009266;28;20502;-71
2023/09/15 00:18:16;;;;;;;4.50;2.27;;;16.40;99.90;;;;;;4980059;28;20222;-71
2023/09/15 00:20:41;;;;;;;2.37;1.97;;;16.30;99.90;;;;;;4977903;28;20479;-72
2023/09/15 00:23:07;;;;;;;2.53;1.80;;;16.30;99.90;;;;;;4980704;28;20229;-71
2023/09/15 00:25:33;;;;;;;4.53;1.83;;;16.30;99.90;;;;;;4992987;28;20230;-71
2023/09/15 00:28:03;;;;;;;4.13;1.87;;;16.30;99.90;;;;;;4981241;28;20229;-72
2023/09/15 00:30:29;;;;;;;2.33;1.57;;;16.30;99.90;;;;;;4978125;28;20555;-71
2023/09/15 00:32:56;;;;;;;1.50;1.40;;;16.30;99.90;;;;;;4994300;28;20471;-71
2023/09/15 00:35:24;;;;;;;2.20;2.00;;;16.20;99.90;;;;;;4991148;28;20459;-71
2023/09/15 00:37:51;;;;;;;4.80;1.90;;;16.20;99.90;;;;;;4996395;28;20477;-72
2023/09/15 00:40:19;;;;;;;3.03;1.60;;;16.20;99.90;;;;;;4978472;28;20565;-72
2023/09/15 00:42:47;;;;;;;2.03;1.77;;;16.20;99.90;;;;;;4980289;28;20506;-72
2023/09/15 00:45:14;;;;;;;2.53;1.63;;;16.20;99.90;;;;;;4976170;28;21377;-72
2023/09/15 00:47:46;;;;;;;3.63;1.70;;;16.10;99.90;;;;;;4981926;28;20470;-72
2023/09/15 00:50:14;;;;;;;1.77;1.67;;;16.10;99.90;;;;;;4980302;28;20489;-71
2023/09/15 00:52:50;;;;;;;2.03;1.83;;;16.10;99.90;;;;;;4979651;28;20466;-72
2023/09/15 00:55:19;;;;;;;2.60;2.13;;;16.10;99.90;;;;;;4994273;28;21276;-72
2023/09/15 00:57:47;;;;;;;1.70;1.60;;;16.10;99.90;;;;;;4992164;28;20598;-72
2023/09/15 01:00:14;;;;;;;2.13;1.93;;;16.10;99.90;;;;;;4978243;28;20479;-72
2023/09/15 01:02:42;;;;;;;2.50;2.27;;;16.10;99.90;;;;;;4979724;28;20543;-72
2023/09/15 01:05:10;;;;;;;3.63;1.90;;;16.00;99.90;;;;;;4977865;28;20480;-71
2023/09/15 01:07:37;;;;;;;1.60;1.50;;;16.00;99.90;;;;;;4978722;28;20457;-72
2023/09/15 01:10:04;;;;;;;2.30;1.93;;;16.00;99.90;;;;;;4979324;28;21116;-72
2023/09/15 01:12:31;;;;;;;1.80;1.70;;;15.90;99.90;;;;;;4978642;28;20457;-71
2023/09/15 01:14:57;;;;;;;2.03;1.43;;;15.90;99.90;;;;;;4962269;28;20519;-71
2023/09/15 01:17:32;;;;;;;2.97;1.80;;;15.90;99.90;;;;;;4959893;28;20476;-72
2023/09/15 01:20:15;;;;;;;1.90;1.77;;;15.90;99.90;;;;;;4992460;28;20229;-71
2023/09/15 01:23:05;;;;;;;1.70;1.43;;;15.90;99.90;;;;;;5010334;28;20469;-72
2023/09/15 01:25:43;;;;;;;2.50;2.20;;;15.90;99.90;;;;;;4978736;28;20472;-71
2023/09/15 01:28:33;;;;;;;2.30;1.40;;;15.80;99.90;;;;;;4977410;28;21020;-72
2023/09/15 01:31:00;;;;;;;2.53;1.40;;;15.80;99.90;;;;;;4992168;28;20460;-72
2023/09/15 01:33:30;;;;;;;2.03;1.40;;;15.80;99.90;;;;;;4960156;28;20472;-71
2023/09/15 01:35:55;;;;;;;2.13;1.93;;;15.80;99.90;;;;;;4978671;28;20465;-71
2023/09/15 01:38:21;;;;;;;2.13;1.90;;;15.70;99.90;;;;;;4992770;28;20570;-71
2023/09/15 01:40:47;;;;;;;2.33;1.90;;;15.70;99.90;;;;;;4979202;28;20236;-71
2023/09/15 01:43:13;;;;;;;5.40;2.30;;;15.70;99.90;;;;;;5008708;28;20291;-71
2023/09/15 01:45:38;;;;;;;3.10;1.93;;;15.60;99.90;;;;;;4977475;28;20639;-71
2023/09/15 01:48:05;;;;;;;1.70;1.30;;;15.60;99.90;;;;;;4979266;28;20270;-72
2023/09/15 01:50:32;;;;;;;3.13;2.10;;;15.60;99.90;;;;;;4962256;28;20233;-72
2023/09/15 01:52:59;;;;;;;2.77;1.63;;;15.50;99.90;;;;;;5007255;28;20545;-71
2023/09/15 01:55:26;;;;;;;3.47;2.20;;;15.50;99.90;;;;;;4977411;28;20465;-71
2023/09/15 01:57:53;;;;;;;2.17;1.60;;;15.50;99.90;;;;;;4992540;28;20355;-71
2023/09/15 02:00:18;;;;;;;2.70;1.77;;;15.50;99.90;;;;;;4976823;28;20923;-72
2023/09/15 02:02:44;;;;;;;2.00;1.80;;;15.50;99.90;;;;;;4979419;28;20465;-71
2023/09/15 02:05:23;;;;;;;3.53;2.00;;;15.20;99.90;;;;;;5008988;28;20229;-72
2023/09/15 02:07:50;;;;;;;1.77;1.63;;;15.30;99.90;;;;;;4978221;28;20829;-72
2023/09/15 02:10:16;;;;;;;1.97;1.83;;;15.40;99.90;;;;;;4992384;28;20471;-71
2023/09/15 02:12:42;;;;;;;3.37;2.13;;;15.40;99.90;;;;;;4980854;28;20228;-71
2023/09/15 02:15:08;;;;;;;1.40;1.30;;;15.40;99.90;;;;;;4977894;28;20480;-71
2023/09/15 02:17:34;;;;;;;2.03;1.83;;;15.40;99.90;;;;;;4978490;28;20393;-71
2023/09/15 02:20:00;;;;;;;3.90;1.33;;;15.40;99.90;;;;;;5007795;28;20468;-71
2023/09/15 02:22:26;;;;;;;1.60;1.47;;;15.40;99.90;;;;;;4977760;28;20236;-72
2023/09/15 02:24:52;;;;;;;1.97;1.77;;;15.30;99.90;;;;;;4979088;28;20228;-72
2023/09/15 02:27:17;;;;;;;3.77;2.27;;;15.30;99.90;;;;;;4977920;28;20471;-71
2023/09/15 02:29:43;;;;;;;2.03;1.77;;;15.30;99.90;;;;;;4978359;28;20249;-71
2023/09/15 02:32:09;;;;;;;2.20;1.90;;;15.30;99.90;;;;;;4975994;28;20378;-72
2023/09/15 02:34:34;;;;;;;3.50;2.20;;;15.30;99.90;;;;;;4991785;28;20944;-71
2023/09/15 02:37:00;;;;;;;2.93;2.00;;;15.30;99.90;;;;;;4995693;28;20224;-71
2023/09/15 02:39:26;;;;;;;2.30;1.43;;;15.20;99.90;;;;;;4976879;28;20306;-71
2023/09/15 02:41:51;;;;;;;2.97;1.90;;;15.20;99.90;;;;;;4978446;28;20214;-71
2023/09/15 02:44:17;;;;;;;2.33;1.83;;;15.20;99.90;;;;;;4976752;28;20234;-72
2023/09/15 02:46:43;;;;;;;6.03;1.83;;;15.20;99.90;;;;;;4978719;28;20569;-71
2023/09/15 02:49:09;;;;;;;2.10;1.50;;;15.10;99.90;;;;;;4979235;28;20723;-72
2023/09/15 02:51:37;;;;;;;2.40;1.90;;;15.10;99.90;;;;;;4977412;28;20504;-71
2023/09/15 02:54:03;;;;;;;2.37;2.17;;;15.10;99.90;;;;;;4962029;28;20295;-71
2023/09/15 02:56:29;;;;;;;2.20;1.40;;;15.10;99.90;;;;;;4975921;28;20564;-71
2023/09/15 02:58:56;;;;;;;2.40;1.90;;;15.00;99.90;;;;;;4978618;28;20479;-72
2023/09/15 03:01:22;;;;;;;2.57;2.00;;;15.10;99.90;;;;;;4977774;28;20477;-71
2023/09/15 03:03:49;;;;;;;3.10;1.63;;;15.00;99.90;;;;;;4978658;28;20221;-72
2023/09/15 03:06:16;;;;;;;1.73;1.63;;;15.00;99.90;;;;;;4977932;28;20475;-72
2023/09/15 03:08:43;;;;;;;1.97;1.83;;;15.00;99.90;;;;;;4980573;28;20472;-71
2023/09/15 03:11:14;;;;;;;4.07;2.00;;;15.00;99.90;;;;;;4979617;28;21170;-71
2023/09/15 03:13:41;;;;;;;1.80;1.70;;;15.00;99.90;;;;;;4979178;28;20545;-71
2023/09/15 03:16:08;;;;;;;3.10;1.87;;;14.90;99.90;;;;;;4977692;28;20533;-71
2023/09/15 03:18:34;;;;;;;2.70;1.60;;;14.90;99.90;;;;;;4961900;28;20480;-71
2023/09/15 03:21:03;;;;;;;2.03;1.83;;;14.90;99.90;;;;;;4977969;28;20603;-71
2023/09/15 03:23:29;;;;;;;3.20;2.03;;;14.90;99.90;;;;;;4979919;28;20757;-70
2023/09/15 03:26:02;;;;;;;2.53;1.67;;;14.90;99.90;;;;;;4978195;28;20482;-71
2023/09/15 03:28:32;;;;;;;1.87;1.33;;;14.90;99.90;;;;;;4967663;28;20340;-70
2023/09/15 03:30:58;;;;;;;3.47;2.00;;;14.80;99.90;;;;;;4978370;28;20480;-71
2023/09/15 03:33:24;;;;;;;3.20;2.00;;;14.80;99.90;;;;;;4962268;28;20864;-71
2023/09/15 03:35:50;;;;;;;3.00;1.90;;;14.80;99.90;;;;;;4977236;28;20861;-71
2023/09/15 03:38:15;;;;;;;2.00;1.53;;;14.80;99.90;;;;;;4994219;28;20261;-71
2023/09/15 03:40:41;;;;;;;1.90;1.70;;;14.80;99.90;;;;;;4979994;28;20233;-71
2023/09/15 03:43:07;;;;;;;1.83;1.73;;;14.80;99.90;;;;;;4980581;28;20466;-71
2023/09/15 03:45:34;;;;;;;9.23;1.90;;;14.70;99.90;;;;;;5012296;28;20371;-71
2023/09/15 03:47:59;;;;;;;2.97;2.03;;;14.70;99.90;;;;;;4979305;28;20600;-71
2023/09/15 03:50:26;;;;;;;1.70;1.60;;;14.70;99.90;;;;;;4981092;28;20469;-71
2023/09/15 03:52:52;;;;;;;2.93;2.43;;;14.60;99.90;;;;;;4979225;28;20328;-71
2023/09/15 03:55:19;;;;;;;2.60;2.10;;;14.60;99.90;;;;;;4978827;28;20529;-71
2023/09/15 03:57:44;;;;;;;3.97;2.00;;;14.60;99.90;;;;;;4982502;28;20219;-72
2023/09/15 04:00:17;;;;;;;3.97;2.13;;;14.50;99.90;;;;;;4971615;28;20470;-71
2023/09/15 04:02:43;;;;;;;2.83;1.80;;;14.40;99.90;;;;;;4981533;28;20226;-71
2023/09/15 04:05:10;;;;;;;4.50;2.00;;;14.40;99.90;;;;;;4978790;28;20867;-71
2023/09/15 04:07:37;;;;;;;3.37;2.13;;;14.50;99.90;;;;;;4980194;28;20488;-71
2023/09/15 04:10:05;;;;;;;4.90;2.10;;;14.50;99.90;;;;;;4981067;28;20461;-72
2023/09/15 04:12:32;;;;;;;2.70;2.27;;;14.50;99.90;;;;;;4980247;28;20455;-71
2023/09/15 04:14:58;;;;;;;2.77;1.90;;;14.50;99.90;;;;;;4980991;28;20580;-71
2023/09/15 04:17:24;;;;;;;6.87;2.67;;;14.50;99.90;;;;;;4976817;28;20833;-71
2023/09/15 04:19:50;;;;;;;1.53;1.40;;;14.50;99.90;;;;;;4973960;28;20291;-71
2023/09/15 04:22:15;;;;;;;1.93;1.83;;;14.50;99.90;;;;;;4989675;28;20225;-70
2023/09/15 04:24:41;;;;;;;3.53;2.07;;;14.50;99.90;;;;;;4993006;28;20304;-71
2023/09/15 04:27:07;;;;;;;4.17;1.90;;;14.40;99.90;;;;;;4978588;28;20230;-70
2023/09/15 04:29:33;;;;;;;2.80;2.00;;;14.40;99.90;;;;;;4967684;28;20260;-70
2023/09/15 04:31:59;;;;;;;3.57;2.40;;;14.40;99.90;;;;;;4991788;28;20464;-72
2023/09/15 04:34:25;;;;;;;2.47;1.73;;;14.30;99.90;;;;;;4979540;28;20282;-71
2023/09/15 04:36:51;;;;;;;5.80;1.97;;;14.30;99.90;;;;;;4996289;28;20217;-70
2023/09/15 04:39:17;;;;;;;9.33;1.87;;;14.30;99.90;;;;;;4978614;28;20461;-70
2023/09/15 04:41:45;;;;;;;4.23;2.47;;;14.30;99.90;;;;;;4979669;28;20220;-70
2023/09/15 04:44:10;;;;;;;1.93;1.80;;;14.30;99.90;;;;;;4981122;28;20460;-70
2023/09/15 04:46:36;;;;;;;2.80;2.10;;;14.30;99.90;;;;;;4979591;28;20240;-70
2023/09/15 04:49:02;;;;;;;3.40;2.40;;;14.30;99.90;;;;;;5009929;28;20261;-72
2023/09/15 04:51:28;;;;;;;1.90;1.57;;;14.20;99.90;;;;;;5009353;28;20230;-71
2023/09/15 04:53:54;;;;;;;3.23;1.80;;;14.20;99.90;;;;;;4995902;28;21092;-70
2023/09/15 04:56:19;;;;;;;3.70;2.30;;;14.20;99.90;;;;;;4964680;28;20231;-70
2023/09/15 04:58:45;;;;;;;2.63;1.90;;;14.20;99.90;;;;;;5010199;28;20295;-71
2023/09/15 05:01:16;;;;;;;3.40;2.17;;;14.20;99.90;;;;;;4978888;28;20222;-71
2023/09/15 05:03:44;;;;;;;3.13;1.90;;;14.20;99.90;;;;;;4978366;28;20249;-71
2023/09/15 05:06:09;;;;;;;2.97;2.10;;;14.20;99.90;;;;;;4978982;28;20494;-71
2023/09/15 05:08:35;;;;;;;6.10;2.10;;;14.20;99.90;;;;;;4994527;28;20846;-71
2023/09/15 05:11:01;;;;;;;2.30;1.87;;;14.20;99.90;;;;;;4994183;28;20319;-71
2023/09/15 05:13:26;;;;;;;2.30;1.80;;;14.10;99.90;;;;;;4978351;28;20700;-71
2023/09/15 05:15:53;;;;;;;2.80;1.80;;;14.20;99.90;;;;;;4980078;28;20222;-71
2023/09/15 05:18:19;;;;;;;2.27;1.87;;;14.20;99.90;;;;;;4979178;28;20595;-71
2023/09/15 05:20:44;;;;;;;2.30;1.47;;;14.20;99.90;;;;;;4980942;28;20806;-71
2023/09/15 05:23:10;;;;;;;2.90;1.80;;;14.20;99.90;;;;;;4981531;28;20238;-70
2023/09/15 05:25:36;;;;;;;1.93;1.83;;;14.20;99.90;;;;;;4978237;28;20251;-71
2023/09/15 05:28:02;;;;;;;2.90;2.20;;;14.10;99.90;;;;;;4962393;28;20229;-71
2023/09/15 05:30:32;;;;;;;2.40;2.10;;;14.20;99.90;;;;;;4958747;28;20474;-71
2023/09/15 05:32:59;;;;;;;2.33;1.80;;;14.20;99.90;;;;;;4979120;28;21001;-71
2023/09/15 05:35:24;;;;;;;2.00;1.70;;;14.10;99.90;;;;;;5010078;28;20525;-71
2023/09/15 05:37:50;;;;;;;5.50;2.10;;;14.20;99.90;;;;;;4979420;28;20233;-71
2023/09/15 05:40:16;;;;;;;2.20;1.83;;;14.20;99.90;;;;;;4978288;28;20225;-71
2023/09/15 05:42:41;;;;;;;2.23;2.00;;;14.10;99.90;;;;;;4961094;28;20217;-71
2023/09/15 05:45:08;;;;;;;3.17;1.90;;;14.10;99.90;;;;;;4981226;28;20257;-71
2023/09/15 05:47:33;;;;;;;1.83;1.73;;;14.20;99.90;;;;;;4961865;28;20233;-71
2023/09/15 05:50:04;;;;;;;2.90;2.23;;;14.20;99.90;;;;;;4978836;28;20503;-73
2023/09/15 05:52:30;;;;;;;6.33;2.20;;;14.10;99.90;;;;;;4977248;28;20221;-72
2023/09/15 05:54:56;;;;;;;2.40;1.90;;;14.10;99.90;;;;;;5009785;28;20461;-71
2023/09/15 05:57:22;;;;;;;2.93;1.97;;;14.20;99.90;;;;;;4978984;28;20502;-71
2023/09/15 05:59:48;;;;;;;4.17;2.23;;;14.10;99.90;;;;;;4989532;28;20253;-71
2023/09/15 06:02:14;;;;;;;2.97;2.20;;;14.10;99.90;;;;;;4966974;28;20479;-71
2023/09/15 06:04:42;;;;;;;3.20;2.07;;;14.10;99.90;;;;;;4977661;28;20237;-71
2023/09/15 06:07:08;;;;;;;3.77;2.00;;;14.10;99.90;;;;;;4975809;28;20978;-70
2023/09/15 06:09:34;;;;;;;6.73;2.03;;;14.10;99.90;;;;;;4978986;28;20541;-70
2023/09/15 06:11:59;;;;;;;2.90;2.17;;;14.10;99.90;;;;;;4977026;28;20221;-72
2023/09/15 06:14:25;;;;;;;4.53;2.13;;;14.10;99.90;;;;;;4991968;28;20232;-71
2023/09/15 06:16:50;;;;;;;3.23;1.87;;;14.10;99.90;;;;;;4976671;28;20327;-71
2023/09/15 06:19:16;;;;;;;4.50;2.30;;;14.10;99.90;;;;;;4977092;28;20231;-70
2023/09/15 06:21:42;;;;;;;2.97;2.30;;;14.10;99.90;;;;;;4974642;28;21012;-71
2023/09/15 06:24:07;;;;;;;4.53;2.03;;;14.10;99.90;;;;;;4975372;28;20236;-71
2023/09/15 06:26:33;;;;;;;4.33;2.30;;;14.10;99.90;;;;;;4977126;28;20268;-71
2023/09/15 06:28:59;;;;;;;4.00;2.80;;;14.20;99.90;;;;;;4977255;28;20817;-71
2023/09/15 06:31:25;;;;;;;4.33;2.30;;;14.20;99.90;;;;;;4987146;28;20479;-70
2023/09/15 06:33:50;;;;;;;2.17;1.77;;;14.20;99.90;;;;;;4974787;28;20328;-70
2023/09/15 06:36:16;;;;;;;1.87;1.77;;;14.20;99.90;;;;;;4974962;28;20344;-70
2023/09/15 06:38:42;;;;;;;5.20;2.20;;;14.30;99.90;;;;;;4969365;28;20233;-71
2023/09/15 06:41:07;;;;;;;3.60;2.33;;;14.20;99.90;;;;;;4971813;28;20225;-70
2023/09/15 06:43:33;;;;;;;3.77;2.50;;;14.30;99.90;;;;;;4993787;28;20253;-71
2023/09/15 06:45:59;;;;;;;2.30;1.87;;;14.30;99.90;;;;;;4959389;28;20324;-70
2023/09/15 06:48:24;;;;;;;2.70;2.10;;;14.30;99.90;;;;;;4972237;28;20237;-71
2023/09/15 06:50:50;;;;;;;2.33;2.10;;;14.40;99.90;;;;;;4965452;28;20220;-70
2023/09/15 06:53:16;;;;;;;7.10;2.80;;;14.40;99.90;;;;;;4975888;28;20868;-71
2023/09/15 06:55:41;;;;;;;2.13;1.90;;;14.50;99.90;;;;;;4976550;28;20790;-71
2023/09/15 06:58:07;;;;;;;2.73;2.30;;;14.50;99.90;;;;;;4979034;28;20226;-71
2023/09/15 07:00:32;;;;;;;3.50;2.17;;;14.50;99.90;;;;;;4976089;28;20271;-72
2023/09/15 07:02:58;;;;;;;2.93;1.83;;;14.60;99.90;;;;;;4973888;28;20765;-71
2023/09/15 07:05:24;;;;;;;3.97;2.63;;;14.60;99.90;;;;;;4978040;28;20238;-71
2023/09/15 07:07:50;;;;;;;2.47;2.20;;;14.60;99.90;;;;;;4976238;28;20230;-71
2023/09/15 07:10:16;;;;;;;1.77;1.67;;;14.70;99.90;;;;;;4976216;28;20217;-70
2023/09/15 07:12:41;;;;;;;2.50;1.97;;;14.70;99.90;;;;;;4971696;28;21055;-70
2023/09/15 07:15:07;;;;;;;5.03;2.30;;;14.80;99.90;;;;;;4977610;28;20226;-71
2023/09/15 07:17:33;;;;;;;4.13;2.63;;;14.90;99.90;;;;;;4958670;28;20323;-71
2023/09/15 07:19:59;;;;;;;2.33;2.13;;;15.00;99.90;;;;;;4976709;28;20332;-71
2023/09/15 07:22:26;;;;;;;2.37;2.13;;;15.10;99.90;;;;;;4989765;28;20230;-71
2023/09/15 07:24:52;;;;;;;2.40;2.20;;;15.20;99.90;;;;;;4975702;28;20218;-71
2023/09/15 07:27:18;;;;;;;3.07;2.20;;;15.30;99.90;;;;;;4975815;28;20468;-71
2023/09/15 07:29:43;;;;;;;3.33;2.03;;;15.40;99.90;;;;;;4976858;28;20251;-71
2023/09/15 07:32:09;;;;;;;3.83;2.60;;;15.50;99.90;;;;;;4973889;28;20636;-71
2023/09/15 07:34:35;;;;;;;7.57;2.97;;;15.50;99.90;;;;;;4978241;28;20222;-71
2023/09/15 07:37:00;;;;;;;5.53;2.77;;;15.60;99.90;;;;;;4990397;28;20252;-71
2023/09/15 07:39:27;;;;;;;7.70;2.37;;;15.70;99.90;;;;;;4977638;28;20222;-71
2023/09/15 07:41:52;;;;;;;4.43;2.50;;;15.80;99.90;;;;;;4974016;28;20214;-71
2023/09/15 07:44:18;;;;;;;3.13;2.30;;;16.00;99.90;;;;;;4975276;28;20893;-71
2023/09/15 07:46:44;;;;;;;2.67;2.27;;;16.00;99.90;;;;;;4977579;28;20255;-71
2023/09/15 07:49:09;;;;;;;4.80;3.17;;;16.20;99.90;;;;;;4977070;28;20221;-71
2023/09/15 07:51:35;;;;;;;4.60;2.70;;;16.30;99.90;;;;;;4974040;28;20256;-71
2023/09/15 07:54:01;;;;;;;3.97;2.90;;;16.40;99.90;;;;;;4974796;28;20275;-71
2023/09/15 07:56:26;;;;;;;3.93;2.50;;;16.40;99.90;;;;;;4978194;28;20233;-70
2023/09/15 07:58:52;;;;;;;3.13;2.83;;;16.40;99.90;;;;;;4971697;28;20225;-71
2023/09/15 08:01:18;;;;;;;6.90;3.60;;;16.50;99.90;;;;;;4971399;28;20222;-71
2023/09/15 08:03:44;;;;;;;3.30;2.77;;;16.60;99.90;;;;;;4974858;28;20220;-71
2023/09/15 08:06:10;;;;;;;6.03;2.67;;;16.60;99.90;;;;;;4975872;28;20486;-71
2023/09/15 08:08:36;;;;;;;7.27;3.17;;;16.80;99.90;;;;;;4974758;28;20473;-71
2023/09/15 08:11:02;;;;;;;4.67;4.20;;;16.90;99.90;;;;;;4974908;28;21123;-71
2023/09/15 08:13:28;;;;;;;6.10;3.60;;;17.10;99.90;;;;;;4975658;28;20233;-71
2023/09/15 08:15:54;;;;;;;3.50;3.20;;;17.20;99.90;;;;;;4978546;28;20226;-71
2023/09/15 08:18:21;;;;;;;7.17;3.80;;;17.30;99.90;;;;;;4966478;28;20343;-71
2023/09/15 08:20:46;;;;;;;4.50;3.47;;;17.40;99.90;;;;;;4971623;28;20484;-71
2023/09/15 08:23:12;;;;;;;7.00;3.20;;;17.50;99.90;;;;;;4965772;28;20595;-71
2023/09/15 08:25:38;;;;;;;4.80;3.27;;;17.50;99.90;;;;;;4970737;28;20259;-71
2023/09/15 08:28:06;;;;;;;4.17;2.60;;;17.70;99.90;;;;;;4998155;28;20222;-71
2023/09/15 08:30:38;;;;;;;7.30;4.53;;;17.70;99.90;;;;;;4968191;28;20477;-71
2023/09/15 08:33:05;;;;;;;4.00;3.60;;;17.70;99.90;;;;;;4965235;28;20481;-72
2023/09/15 08:35:31;;;;;;;8.00;3.87;;;17.80;99.90;;;;;;4986932;28;20484;-71
2023/09/15 08:37:56;;;;;;;8.63;4.77;;;17.90;99.90;;;;;;4970256;28;20511;-71
2023/09/15 08:40:22;;;;;;;5.87;3.47;;;17.90;99.90;;;;;;4999054;28;20233;-71
2023/09/15 08:42:48;;;;;;;4.13;3.50;;;18.00;99.90;;;;;;4969156;28;20249;-71
2023/09/15 08:45:14;;;;;;;6.37;4.23;;;18.10;99.90;;;;;;4969632;28;21546;-71
2023/09/15 08:47:45;;;;;;;5.37;4.40;;;18.30;99.90;;;;;;4967685;28;20218;-71
2023/09/15 08:50:11;;;;;;;4.60;3.70;;;18.60;99.90;;;;;;4967168;28;20524;-71
2023/09/15 08:52:37;;;;;;;3.93;3.23;;;18.60;99.90;;;;;;4967892;28;20638;-71
2023/09/15 08:55:03;;;;;;;5.63;4.30;;;18.70;99.90;;;;;;4965917;28;20217;-72
2023/09/15 08:57:30;;;;;;;5.50;4.17;;;18.70;99.90;;;;;;4970097;28;20483;-71
2023/09/15 08:59:59;;;;;;;4.93;4.23;;;18.70;99.90;;;;;;4969827;28;20472;-71
2023/09/15 09:02:26;;;;;;;5.30;3.90;;;18.70;99.90;;;;;;4964688;28;21103;-72
2023/09/15 09:04:52;;;;;;;4.17;3.80;;;18.80;99.90;;;;;;4966764;28;20479;-71
2023/09/15 09:07:21;;;;;;;7.50;4.53;;;18.90;99.90;;;;;;4966815;28;20513;-71
2023/09/15 09:09:47;;;;;;;6.77;3.80;;;18.90;99.90;;;;;;4970522;28;20883;-71
2023/09/15 09:12:13;;;;;;;7.27;4.83;;;19.00;99.90;;;;;;4981046;28;21072;-72
2023/09/15 09:14:39;;;;;;;6.73;5.03;;;19.10;99.90;;;;;;4968347;28;20457;-71
2023/09/15 09:17:07;;;;;;;6.17;3.90;;;19.20;99.90;;;;;;4978724;28;20515;-72
2023/09/15 09:19:42;;;;;;;4.27;3.70;;;19.20;99.90;;;;;;4970520;28;20269;-71
2023/09/15 09:22:08;;;;;;;5.10;3.60;;;19.40;99.90;;;;;;4962199;28;21128;-71
2023/09/15 09:24:35;;;;;;;3.90;3.50;;;19.50;99.90;;;;;;4970629;28;20468;-71
2023/09/15 09:27:07;;;;;;;3.73;3.40;;;19.50;99.90;;;;;;4968837;28;20494;-72
2023/09/15 09:29:32;;;;;;;4.10;3.70;;;19.50;99.90;;;;;;4986629;28;20508;-72
2023/09/15 09:31:58;;;;;;;3.63;3.30;;;19.70;99.90;;;;;;4965952;28;20467;-71
2023/09/15 09:34:24;;;;;;;4.47;3.77;;;20.00;99.90;;;;;;4997136;28;20247;-71
2023/09/15 09:36:51;;;;;;;8.33;4.00;;;20.40;99.90;;;;;;4969521;28;21819;-72
2023/09/15 09:39:17;;;;;;;4.40;4.00;;;20.50;99.90;;;;;;4968971;28;20538;-72
2023/09/15 09:41:46;;;;;;;4.23;3.67;;;20.40;99.90;;;;;;4968328;28;20473;-72
2023/09/15 09:44:12;;;;;;;5.80;3.40;;;20.50;99.90;;;;;;4967869;28;20234;-71
2023/09/15 09:46:42;;;;;;;6.97;4.80;;;20.60;99.90;;;;;;4968097;28;20484;-71
2023/09/15 09:49:08;;;;;;;7.20;5.17;;;20.70;99.90;;;;;;4980791;28;20503;-72
2023/09/15 09:51:35;;;;;;;4.47;4.00;;;20.70;99.90;;;;;;4996822;28;20472;-71
2023/09/15 09:54:03;;;;;;;3.90;3.10;;;20.70;99.90;;;;;;4968781;28;21787;-73
2023/09/15 09:56:32;;;;;;;4.83;3.87;;;20.80;99.90;;;;;;4969975;28;20618;-72
2023/09/15 09:59:16;;;;;;;3.90;3.50;;;21.00;99.90;;;;;;4970935;28;20460;-72
2023/09/15 10:01:42;;;;;;;5.03;3.60;;;21.20;99.90;;;;;;4996938;28;20659;-72
2023/09/15 10:04:07;;;;;;;4.73;3.17;;;21.40;99.90;;;;;;4981559;28;20722;-72
2023/09/15 10:06:36;;;;;;;4.07;3.67;;;21.60;99.90;;;;;;4968223;28;20245;-72
2023/09/15 10:09:06;;;;;;;4.47;4.00;;;21.90;99.90;;;;;;4965936;28;20312;-73
2023/09/15 10:11:35;;;;;;;6.73;3.90;;;22.00;99.90;;;;;;4967990;28;20481;-72
2023/09/15 10:14:05;;;;;;;8.40;4.30;;;22.10;99.90;;;;;;4967983;28;20607;-72
2023/09/15 10:16:32;;;;;;;4.30;3.90;;;22.30;99.90;;;;;;4968462;28;20494;-72
2023/09/15 10:18:59;;;;;;;5.20;4.70;;;22.40;99.90;;;;;;4968537;28;20516;-72
2023/09/15 10:21:26;;;;;;;4.10;3.73;;;22.10;99.90;;;;;;4965038;28;20604;-72
2023/09/15 10:24:06;;;;;;;4.50;3.83;;;21.90;99.90;;;;;;4966955;28;20507;-72
2023/09/15 10:26:32;;;;;;;3.53;3.23;;;22.20;99.90;;;;;;4969743;28;20476;-72
2023/09/15 10:29:01;;;;;;;5.63;3.83;;;22.40;99.90;;;;;;4998863;28;20463;-71
2023/09/15 10:31:29;;;;;;;4.57;3.70;;;22.20;99.90;;;;;;4964426;28;20480;-72
2023/09/15 10:33:54;;;;;;;4.70;4.13;;;22.40;99.90;;;;;;4967416;28;20829;-72
2023/09/15 10:36:21;;;;;;;3.97;3.60;;;22.40;99.90;;;;;;4964405;28;20530;-72
2023/09/15 10:38:47;;;;;;;5.27;4.10;;;22.60;99.90;;;;;;4969037;28;20705;-72
2023/09/15 10:41:29;;;;;;;3.47;3.27;;;22.40;99.90;;;;;;4992502;28;20479;-72
2023/09/15 10:43:55;;;;;;;4.70;3.73;;;22.40;99.90;;;;;;4967863;28;20495;-72
2023/09/15 10:46:21;;;;;;;5.30;3.80;;;22.50;99.90;;;;;;4964922;28;20481;-72
2023/09/15 10:48:48;;;;;;;3.90;2.90;;;22.60;99.90;;;;;;4966466;28;20666;-72
2023/09/15 10:51:16;;;;;;;4.27;3.43;;;22.80;99.90;;;;;;4965525;28;21886;-71
2023/09/15 10:53:56;;;;;;;4.37;3.80;;;23.00;99.90;;;;;;4967827;28;20479;-72
2023/09/15 10:56:22;;;;;;;4.47;3.60;;;23.00;99.90;;;;;;4966363;28;20474;-72
2023/09/15 10:58:48;;;;;;;4.40;3.43;;;23.00;99.90;;;;;;4968735;28;20472;-72
2023/09/15 11:01:14;;;;;;;4.10;3.70;;;23.00;99.90;;;;;;4966432;28;20220;-72
2023/09/15 11:03:41;;;;;;;4.57;4.17;;;22.80;99.90;;;;;;4985795;28;20385;-72
2023/09/15 11:06:10;;;;;;;4.97;4.10;;;22.80;99.90;;;;;;4965688;28;20480;-72
2023/09/15 11:08:36;;;;;;;4.70;4.20;;;22.90;99.90;;;;;;4970824;28;20480;-72
2023/09/15 11:11:10;;;;;;;4.67;4.27;;;23.00;99.90;;;;;;4966256;28;20937;-72
2023/09/15 11:13:41;;;;;;;4.20;3.90;;;23.20;99.90;;;;;;4954883;28;20480;-72
2023/09/15 11:16:10;;;;;;;4.97;4.47;;;23.40;99.90;;;;;;4967642;28;21352;-73
2023/09/15 11:18:37;;;;;;;8.30;4.40;;;23.10;99.90;;;;;;4972620;28;20472;-72
2023/09/15 11:21:05;;;;;;;4.83;4.20;;;23.10;99.90;;;;;;4965676;28;20555;-72
2023/09/15 11:23:30;;;;;;;4.60;4.20;;;23.10;99.90;;;;;;4971045;28;20522;-72
2023/09/15 11:26:03;;;;;;;4.07;3.70;;;23.60;99.90;;;;;;4970468;28;20484;-73
2023/09/15 11:28:33;;;;;;;5.40;4.17;;;23.70;99.90;;;;;;4970456;28;20237;-72
2023/09/15 11:31:02;;;;;;;4.30;3.97;;;23.70;99.90;;;;;;4961208;28;20475;-72
2023/09/15 11:33:29;;;;;;;4.23;3.80;;;23.80;99.90;;;;;;4978324;28;20476;-72
2023/09/15 11:35:56;;;;;;;3.43;3.13;;;23.90;99.90;;;;;;5009069;28;20490;-72
2023/09/15 11:38:23;;;;;;;4.60;4.30;;;24.00;99.90;;;;;;4975755;28;20512;-72
2023/09/15 11:40:50;;;;;;;3.83;3.43;;;24.00;99.90;;;;;;4978537;28;20483;-73
2023/09/15 11:43:19;;;;;;;5.77;3.70;;;24.00;99.90;;;;;;4978946;28;20479;-72
2023/09/15 11:45:45;;;;;;;4.80;4.30;;;23.90;99.90;;;;;;4976894;28;21461;-72
2023/09/15 11:48:12;;;;;;;4.20;3.80;;;23.60;99.90;;;;;;4978074;28;20499;-72
2023/09/15 11:50:38;;;;;;;4.90;4.40;;;23.70;99.90;;;;;;4977609;28;21520;-72
2023/09/15 11:53:04;;;;;;;4.17;3.87;;;23.70;99.90;;;;;;4977608;28;21510;-72
2023/09/15 11:55:30;;;;;;;4.23;3.83;;;24.00;99.90;;;;;;4980157;28;20357;-72
2023/09/15 11:57:57;;;;;;;4.43;4.00;;;24.30;99.90;;;;;;4978133;28;20228;-72
2023/09/15 12:00:28;;;;;;;4.93;3.60;;;24.30;99.90;;;;;;4977803;28;20469;-72
2023/09/15 12:02:55;;;;;;;4.30;3.90;;;24.30;99.90;;;;;;4976995;28;20562;-72
2023/09/15 12:05:22;;;;;;;4.63;4.10;;;24.10;99.90;;;;;;4958176;28;21865;-72
2023/09/15 12:07:49;;;;;;;4.27;3.50;;;23.90;99.90;;;;;;4975207;28;20544;-73
2023/09/15 12:10:16;;;;;;;5.90;3.80;;;24.00;99.90;;;;;;4973488;28;20491;-73
2023/09/15 12:12:44;;;;;;;3.70;3.40;;;24.30;99.90;;;;;;4972889;28;20468;-73
2023/09/15 12:15:10;;;;;;;3.30;3.10;;;24.50;99.90;;;;;;4978414;28;21084;-72
2023/09/15 12:17:50;;;;;;;3.50;3.20;;;25.00;99.90;;;;;;4993597;28;20480;-72
2023/09/15 12:20:15;;;;;;;4.00;3.70;;;25.40;99.90;;;;;;4977544;28;21757;-72
2023/09/15 12:22:43;;;;;;;4.40;3.40;;;25.20;99.90;;;;;;4977158;28;20468;-72
2023/09/15 12:25:15;;;;;;;4.13;3.77;;;25.00;99.90;;;;;;4978848;28;20225;-73
2023/09/15 12:27:41;;;;;;;3.87;3.53;;;25.10;99.90;;;;;;4962479;28;21295;-72
2023/09/15 12:30:09;;;;;;;4.23;3.53;;;25.30;99.90;;;;;;4975926;28;20471;-73
2023/09/15 12:32:35;;;;;;;3.83;3.53;;;25.10;99.90;;;;;;4974914;28;20573;-72
2023/09/15 12:35:05;;;;;;;3.40;3.17;;;24.90;99.90;;;;;;4974020;28;20487;-74
2023/09/15 12:37:34;;;;;;;3.70;3.50;;;24.90;99.90;;;;;;5005325;28;20472;-72
2023/09/15 12:40:00;;;;;;;3.47;3.20;;;24.90;99.90;;;;;;4975889;28;20471;-72
2023/09/15 12:42:26;;;;;;;3.60;3.30;;;24.90;99.90;;;;;;4974655;28;20475;-73
2023/09/15 12:44:52;;;;;;;4.10;3.70;;;24.90;99.90;;;;;;4976306;28;20306;-72
2023/09/15 12:47:17;;;;;;;4.00;3.63;;;24.80;99.90;;;;;;4976730;28;21799;-72